Time;durP1;ratioP1;P1;durP2;ratioP2;P2;SDS_P1;SDS_P2;PMS_P1;PMS_P2;Temp;Humidity;BMP_temperature;BMP_pressure;BME280_temperature;BME280_humidity;BME280_pressure;Samples;Min_cycle;Max_cycle;Signal;HPM_P1;HPM_P2
2020/12/16 00:02:26;;;;;;;37.13;17.80;;;5.00;99.90;;;;;;5074647;28;20266;-66
2020/12/16 00:04:52;;;;;;;37.83;18.30;;;5.00;99.90;;;;;;5071926;28;20218;-66
2020/12/16 00:07:19;;;;;;;32.90;18.13;;;5.10;99.90;;;;;;5054665;28;20642;-67
2020/12/16 00:09:45;;;;;;;29.70;17.40;;;5.20;99.90;;;;;;5055398;28;20178;-66
2020/12/16 00:12:11;;;;;;;28.30;17.97;;;5.40;99.90;;;;;;5074338;28;20170;-66
2020/12/16 00:14:37;;;;;;;32.50;17.97;;;5.60;99.90;;;;;;5074679;28;20287;-66
2020/12/16 00:17:04;;;;;;;30.17;17.50;;;5.60;99.90;;;;;;5054972;28;20183;-66
2020/12/16 00:19:30;;;;;;;30.50;17.67;;;5.70;99.90;;;;;;5054431;28;20171;-66
2020/12/16 00:21:59;;;;;;;27.67;17.27;;;5.70;99.90;;;;;;5071921;28;20574;-67
2020/12/16 00:24:25;;;;;;;27.50;17.90;;;5.70;99.90;;;;;;5061854;28;20294;-66
2020/12/16 00:26:50;;;;;;;26.70;17.63;;;5.80;99.90;;;;;;5054337;28;20170;-65
2020/12/16 00:29:16;;;;;;;31.73;16.27;;;5.90;99.90;;;;;;5064544;28;20174;-66
2020/12/16 00:31:42;;;;;;;29.57;16.97;;;5.90;99.90;;;;;;5073896;28;20204;-67
2020/12/16 00:34:07;;;;;;;34.60;17.80;;;6.00;99.90;;;;;;5065103;28;20241;-66
2020/12/16 00:36:40;;;;;;;32.57;16.97;;;6.10;99.90;;;;;;5054056;28;20181;-66
2020/12/16 00:39:08;;;;;;;31.53;17.30;;;6.20;99.90;;;;;;5061904;28;20174;-64
2020/12/16 00:41:34;;;;;;;29.93;16.60;;;6.20;99.90;;;;;;5073546;28;20213;-67
2020/12/16 00:44:04;;;;;;;23.60;15.17;;;6.30;99.90;;;;;;5067051;28;20171;-66
2020/12/16 00:46:30;;;;;;;23.30;15.83;;;6.30;99.90;;;;;;5054000;28;20206;-66
2020/12/16 00:48:56;;;;;;;22.87;14.70;;;6.30;99.90;;;;;;5059340;28;20202;-66
2020/12/16 00:51:22;;;;;;;31.80;15.60;;;6.30;99.90;;;;;;5073713;28;20178;-65
2020/12/16 00:53:47;;;;;;;24.87;15.23;;;6.30;99.90;;;;;;5069672;28;20194;-66
2020/12/16 00:56:13;;;;;;;26.53;14.87;;;6.10;99.90;;;;;;5053758;28;20232;-67
2020/12/16 00:58:39;;;;;;;21.00;14.37;;;6.20;99.90;;;;;;5055513;28;20214;-67
2020/12/16 01:01:05;;;;;;;22.43;14.67;;;6.10;99.90;;;;;;5073478;28;20244;-66
2020/12/16 01:03:32;;;;;;;22.40;14.77;;;6.00;99.90;;;;;;5072792;28;20167;-66
2020/12/16 01:05:58;;;;;;;20.87;14.50;;;6.00;99.90;;;;;;5053459;28;20203;-66
2020/12/16 01:08:23;;;;;;;26.27;15.83;;;5.90;99.90;;;;;;5064191;28;20181;-67
2020/12/16 01:10:49;;;;;;;22.37;14.87;;;5.90;99.90;;;;;;5073319;28;20178;-67
2020/12/16 01:13:15;;;;;;;21.47;14.43;;;5.90;99.90;;;;;;5064077;28;20556;-67
2020/12/16 01:15:41;;;;;;;26.63;15.40;;;5.90;99.90;;;;;;5053335;28;20197;-66
2020/12/16 01:18:06;;;;;;;25.00;15.87;;;5.90;99.90;;;;;;5057243;28;20182;-66
2020/12/16 01:20:32;;;;;;;23.20;14.30;;;5.80;99.90;;;;;;5052910;28;20179;-66
2020/12/16 01:22:58;;;;;;;24.70;15.10;;;5.80;99.90;;;;;;5058639;28;20177;-66
2020/12/16 01:25:23;;;;;;;23.70;15.17;;;5.70;99.90;;;;;;5073060;28;20186;-66
2020/12/16 01:27:57;;;;;;;28.27;16.00;;;5.60;99.90;;;;;;5069032;28;20199;-67
2020/12/16 01:30:23;;;;;;;26.53;15.93;;;5.50;99.90;;;;;;5052986;28;20171;-66
2020/12/16 01:32:51;;;;;;;21.93;16.10;;;5.50;99.90;;;;;;5056105;28;20181;-66
2020/12/16 01:35:16;;;;;;;25.70;16.10;;;5.40;99.90;;;;;;5072908;28;20263;-66
2020/12/16 01:37:42;;;;;;;26.27;16.70;;;5.40;99.90;;;;;;5070831;28;20178;-66
2020/12/16 01:40:09;;;;;;;28.43;15.60;;;5.40;99.90;;;;;;5052738;28;20629;-66
2020/12/16 01:42:36;;;;;;;31.83;16.30;;;5.40;99.90;;;;;;5052689;28;20623;-65
2020/12/16 01:45:15;;;;;;;25.70;15.43;;;5.50;99.90;;;;;;5072827;28;20230;-66
2020/12/16 01:47:41;;;;;;;28.57;16.33;;;5.60;99.90;;;;;;5072088;28;20166;-66
2020/12/16 01:50:09;;;;;;;24.87;15.73;;;5.70;99.90;;;;;;5071640;28;20199;-66
2020/12/16 01:52:37;;;;;;;27.40;16.03;;;5.70;99.90;;;;;;5072537;28;20178;-66
2020/12/16 01:55:04;;;;;;;31.97;17.07;;;5.80;99.90;;;;;;5052875;28;20194;-66
2020/12/16 01:57:39;;;;;;;30.53;17.63;;;5.90;99.90;;;;;;5052758;28;20171;-66
2020/12/16 02:00:10;;;;;;;25.33;16.57;;;6.00;99.90;;;;;;5071310;28;20173;-66
2020/12/16 02:02:50;;;;;;;30.17;16.70;;;6.10;99.90;;;;;;5072291;28;20198;-66
2020/12/16 02:05:19;;;;;;;31.43;16.90;;;6.20;99.90;;;;;;5032396;28;20195;-65
2020/12/16 02:07:46;;;;;;;28.50;17.07;;;6.30;99.90;;;;;;5044559;28;20270;-66
2020/12/16 02:10:15;;;;;;;25.97;16.40;;;6.40;99.90;;;;;;5072004;28;20647;-64
2020/12/16 02:12:40;;;;;;;32.93;16.80;;;6.40;99.90;;;;;;5070510;28;20523;-66
2020/12/16 02:15:07;;;;;;;28.53;16.50;;;6.40;99.90;;;;;;5072309;28;20281;-66
2020/12/16 02:17:33;;;;;;;30.87;16.47;;;6.50;99.90;;;;;;5068334;28;20181;-67
2020/12/16 02:20:08;;;;;;;21.30;14.83;;;6.50;99.90;;;;;;5051967;28;20582;-66
2020/12/16 02:22:36;;;;;;;26.73;16.70;;;6.50;99.90;;;;;;5053079;28;20241;-67
2020/12/16 02:25:11;;;;;;;26.23;15.20;;;6.50;99.90;;;;;;5052118;28;20278;-67
2020/12/16 02:27:38;;;;;;;26.90;15.33;;;6.50;99.90;;;;;;5060289;28;20260;-67
2020/12/16 02:30:06;;;;;;;28.73;15.00;;;6.50;99.90;;;;;;5072199;28;20189;-66
2020/12/16 02:32:32;;;;;;;25.53;15.83;;;6.50;99.90;;;;;;5064336;28;20182;-66
2020/12/16 02:34:58;;;;;;;26.27;14.73;;;6.50;99.90;;;;;;5051927;28;20190;-66
2020/12/16 02:37:24;;;;;;;28.77;15.33;;;6.50;99.90;;;;;;5057273;28;20205;-66
2020/12/16 02:39:51;;;;;;;28.70;14.53;;;6.40;99.90;;;;;;5071331;28;20174;-66
2020/12/16 02:42:25;;;;;;;27.10;15.00;;;6.40;99.90;;;;;;5070654;28;20194;-66
2020/12/16 02:44:52;;;;;;;28.90;15.40;;;6.30;99.90;;;;;;5071324;28;20276;-66
2020/12/16 02:47:18;;;;;;;23.13;15.27;;;6.20;99.90;;;;;;5051652;28;20214;-66
2020/12/16 02:49:44;;;;;;;28.03;15.07;;;6.20;99.90;;;;;;5051613;28;20198;-66
2020/12/16 02:52:09;;;;;;;29.07;15.27;;;6.10;99.90;;;;;;5069620;28;20182;-67
2020/12/16 02:54:35;;;;;;;27.53;15.60;;;6.00;99.90;;;;;;5071671;28;20186;-66
2020/12/16 02:57:03;;;;;;;30.60;16.63;;;6.00;99.90;;;;;;5054740;28;20669;-65
2020/12/16 02:59:29;;;;;;;22.70;14.37;;;5.90;99.90;;;;;;5051463;28;20175;-66
2020/12/16 03:01:56;;;;;;;30.43;15.63;;;5.90;99.90;;;;;;5066289;28;20667;-66
2020/12/16 03:04:23;;;;;;;26.50;16.43;;;5.80;99.90;;;;;;5071357;28;20233;-67
2020/12/16 03:06:50;;;;;;;25.30;14.93;;;5.70;99.90;;;;;;5057357;28;20679;-66
2020/12/16 03:09:17;;;;;;;33.27;15.67;;;5.70;99.90;;;;;;5051495;28;20171;-67
2020/12/16 03:11:43;;;;;;;25.60;15.43;;;5.60;99.90;;;;;;5063454;28;20182;-66
2020/12/16 03:14:09;;;;;;;24.40;14.83;;;5.60;99.90;;;;;;5071442;28;20186;-66
2020/12/16 03:16:35;;;;;;;25.10;14.93;;;5.60;99.90;;;;;;5060254;28;20182;-66
2020/12/16 03:19:01;;;;;;;27.60;15.63;;;5.60;99.90;;;;;;5051499;28;20453;-66
2020/12/16 03:21:27;;;;;;;32.83;15.23;;;5.60;99.90;;;;;;5060136;28;20767;-67
2020/12/16 03:23:54;;;;;;;26.10;14.80;;;5.60;99.90;;;;;;5071459;28;20166;-66
2020/12/16 03:26:20;;;;;;;33.13;16.47;;;5.60;99.90;;;;;;5063376;28;20175;-65
2020/12/16 03:28:46;;;;;;;29.17;16.37;;;5.60;99.90;;;;;;5051230;28;20258;-65
2020/12/16 03:31:14;;;;;;;33.63;16.27;;;5.50;99.90;;;;;;5061197;28;20537;-66
2020/12/16 03:33:41;;;;;;;36.60;17.23;;;5.50;99.90;;;;;;5075169;28;20182;-67
2020/12/16 03:36:06;;;;;;;31.67;17.57;;;5.50;99.90;;;;;;5070221;28;20191;-66
2020/12/16 03:38:32;;;;;;;29.33;17.30;;;5.50;99.90;;;;;;5055185;28;20710;-67
2020/12/16 03:40:58;;;;;;;29.53;17.50;;;5.40;99.90;;;;;;5057734;28;20206;-66
2020/12/16 03:43:24;;;;;;;29.53;16.27;;;5.40;99.90;;;;;;5075154;28;20178;-66
2020/12/16 03:45:50;;;;;;;35.03;17.33;;;5.30;99.90;;;;;;5073367;28;20197;-66
2020/12/16 03:48:16;;;;;;;34.20;17.63;;;5.30;99.90;;;;;;5055086;28;20171;-67
2020/12/16 03:50:42;;;;;;;44.07;18.27;;;5.30;99.90;;;;;;5054731;28;20240;-66
2020/12/16 03:53:07;;;;;;;35.87;17.63;;;5.30;99.90;;;;;;5074767;28;20218;-66
2020/12/16 03:55:33;;;;;;;36.70;17.30;;;5.30;99.90;;;;;;5074759;28;20595;-66
2020/12/16 03:57:58;;;;;;;37.23;17.10;;;5.20;99.90;;;;;;5056571;28;20210;-67
2020/12/16 04:00:24;;;;;;;35.93;18.47;;;5.30;99.90;;;;;;5054411;28;20597;-65
2020/12/16 04:02:50;;;;;;;48.80;18.00;;;5.30;99.90;;;;;;5070729;28;20181;-67
2020/12/16 04:05:15;;;;;;;37.63;18.63;;;5.20;99.90;;;;;;5074675;28;20210;-66
2020/12/16 04:07:41;;;;;;;37.73;17.27;;;5.30;99.90;;;;;;5059771;28;20656;-66
2020/12/16 04:10:07;;;;;;;36.70;18.43;;;5.30;99.90;;;;;;5054415;28;20205;-66
2020/12/16 04:12:32;;;;;;;36.27;18.53;;;5.30;99.90;;;;;;5067010;28;20620;-66
2020/12/16 04:14:58;;;;;;;39.97;18.20;;;5.30;99.90;;;;;;5074858;28;20225;-67
2020/12/16 04:17:24;;;;;;;55.73;18.20;;;5.20;99.90;;;;;;5063123;28;20249;-67
2020/12/16 04:19:49;;;;;;;73.93;19.60;;;5.20;99.90;;;;;;5054510;28;20566;-66
2020/12/16 04:22:15;;;;;;;43.20;17.93;;;5.20;99.90;;;;;;5070703;28;20206;-66
2020/12/16 04:24:40;;;;;;;44.13;17.40;;;5.10;99.90;;;;;;5074300;28;20186;-66
2020/12/16 04:27:06;;;;;;;39.33;15.97;;;5.10;99.90;;;;;;5059083;28;20257;-66
2020/12/16 04:29:31;;;;;;;34.10;16.80;;;5.10;99.90;;;;;;5054070;28;20659;-66
2020/12/16 04:31:57;;;;;;;32.03;16.90;;;5.10;99.90;;;;;;5067084;28;20184;-66
2020/12/16 04:34:23;;;;;;;32.43;16.17;;;5.10;99.90;;;;;;5074127;28;20301;-66
2020/12/16 04:36:52;;;;;;;37.47;17.00;;;5.00;99.90;;;;;;5062269;28;20262;-67
2020/12/16 04:39:18;;;;;;;37.30;16.70;;;5.00;99.90;;;;;;5054196;28;20179;-65
2020/12/16 04:41:44;;;;;;;36.60;19.60;;;5.00;99.90;;;;;;5063353;28;20249;-66
2020/12/16 04:44:11;;;;;;;39.87;19.20;;;5.00;99.90;;;;;;5074235;28;20262;-66
2020/12/16 04:46:41;;;;;;;46.50;20.83;;;5.00;99.90;;;;;;5072159;28;20581;-66
2020/12/16 04:49:08;;;;;;;51.27;20.67;;;5.00;99.90;;;;;;5074021;28;20553;-66
2020/12/16 04:51:35;;;;;;;47.73;19.57;;;5.00;99.90;;;;;;5065336;28;20265;-66
2020/12/16 04:54:01;;;;;;;42.40;18.23;;;5.00;99.90;;;;;;5054115;28;20647;-66
2020/12/16 04:56:27;;;;;;;39.63;18.53;;;5.10;99.90;;;;;;5059887;28;20268;-66
2020/12/16 04:58:56;;;;;;;43.90;17.83;;;5.00;99.90;;;;;;5073726;28;20585;-67
2020/12/16 05:01:22;;;;;;;48.13;19.20;;;5.00;99.90;;;;;;5068020;28;20202;-66
2020/12/16 05:03:48;;;;;;;46.60;18.60;;;5.00;99.90;;;;;;5053485;28;20167;-66
2020/12/16 05:06:32;;;;;;;40.80;18.47;;;4.80;99.90;;;;;;5188892;22;20226;-64
2020/12/16 05:09:07;;;;;;;35.70;17.57;;;4.90;99.90;;;;;;5053806;28;20170;-66
2020/12/16 05:11:40;;;;;;;43.13;19.07;;;4.90;99.90;;;;;;5072570;28;20654;-65
2020/12/16 05:14:14;;;;;;;43.27;17.23;;;4.90;99.90;;;;;;5073363;28;20174;-64
2020/12/16 05:16:56;;;;;;;41.60;17.33;;;4.90;99.90;;;;;;5033387;28;20182;-64
2020/12/16 05:19:29;;;;;;;35.60;15.97;;;4.80;99.90;;;;;;5034751;28;20175;-64
2020/12/16 05:22:24;;;;;;;43.23;17.20;;;4.80;99.90;;;;;;5066035;28;20709;-65
2020/12/16 05:24:58;;;;;;;39.07;18.17;;;4.70;99.90;;;;;;5069073;28;20197;-63
2020/12/16 05:27:31;;;;;;;38.87;18.03;;;4.80;99.90;;;;;;5053294;28;20179;-63
2020/12/16 05:30:03;;;;;;;45.40;19.43;;;4.80;99.90;;;;;;5062324;28;20188;-65
2020/12/16 05:32:31;;;;;;;38.80;17.50;;;4.80;99.90;;;;;;5072902;28;20182;-64
2020/12/16 05:34:59;;;;;;;38.43;18.40;;;4.80;99.90;;;;;;5062624;28;20187;-65
2020/12/16 05:37:32;;;;;;;44.37;19.07;;;4.80;99.90;;;;;;5053063;28;20167;-65
2020/12/16 05:40:01;;;;;;;40.43;19.43;;;4.90;99.90;;;;;;5061453;28;20265;-64
2020/12/16 05:42:27;;;;;;;41.70;18.80;;;4.90;99.90;;;;;;5072820;28;20193;-63
2020/12/16 05:44:58;;;;;;;45.77;18.73;;;4.90;99.90;;;;;;5065203;28;20187;-64
2020/12/16 05:47:24;;;;;;;44.83;19.07;;;4.90;99.90;;;;;;5052804;28;20178;-65
2020/12/16 05:49:50;;;;;;;43.77;18.33;;;4.90;99.90;;;;;;5058970;28;20277;-64
2020/12/16 05:52:16;;;;;;;42.57;18.77;;;4.80;99.90;;;;;;5071797;28;20208;-64
2020/12/16 05:54:48;;;;;;;41.67;19.13;;;4.80;99.90;;;;;;5067498;28;20195;-64
2020/12/16 05:57:29;;;;;;;47.00;18.50;;;4.90;99.90;;;;;;5052783;28;20167;-63
2020/12/16 06:00:08;;;;;;;42.20;18.77;;;4.90;99.90;;;;;;5058105;28;20170;-61
2020/12/16 06:02:43;;;;;;;55.90;19.57;;;4.90;99.90;;;;;;5072541;28;20292;-63
2020/12/16 06:05:14;;;;;;;42.27;20.37;;;5.00;99.90;;;;;;5064795;28;20297;-64
2020/12/16 06:07:44;;;;;;;49.20;19.47;;;5.00;99.90;;;;;;5052222;28;20175;-64
2020/12/16 06:10:11;;;;;;;45.50;17.77;;;4.90;99.90;;;;;;5058751;28;20542;-64
2020/12/16 06:12:44;;;;;;;62.60;19.13;;;4.90;99.90;;;;;;5072096;28;20635;-63
2020/12/16 06:15:14;;;;;;;145.33;24.30;;;4.90;99.90;;;;;;5070529;28;20194;-64
2020/12/16 06:17:48;;;;;;;167.97;20.60;;;4.90;99.90;;;;;;5072396;28;20568;-63
2020/12/16 06:20:18;;;;;;;148.40;21.67;;;4.90;99.90;;;;;;5059554;28;20356;-63
2020/12/16 06:22:48;;;;;;;120.00;24.57;;;4.80;99.90;;;;;;5051971;28;20248;-63
2020/12/16 06:25:16;;;;;;;134.17;20.83;;;4.80;99.90;;;;;;5063399;28;20194;-64
2020/12/16 06:27:46;;;;;;;117.07;19.33;;;4.80;99.90;;;;;;5071892;28;20215;-63
2020/12/16 06:30:27;;;;;;;145.10;21.40;;;4.80;99.90;;;;;;5060913;28;20425;-64
2020/12/16 06:33:03;;;;;;;108.00;19.70;;;4.80;99.90;;;;;;5051939;28;20167;-64
2020/12/16 06:35:30;;;;;;;78.40;21.83;;;4.80;99.90;;;;;;5062973;28;20704;-62
2020/12/16 06:38:22;;;;;;;72.97;23.53;;;4.70;99.90;;;;;;5070549;28;20166;-63
2020/12/16 06:40:53;;;;;;;62.30;18.93;;;4.70;99.90;;;;;;5057101;28;20214;-63
2020/12/16 06:43:31;;;;;;;41.83;19.03;;;4.70;99.90;;;;;;5051829;28;20225;-66
2020/12/16 06:45:57;;;;;;;49.80;19.73;;;4.60;99.90;;;;;;5066146;28;20323;-64
2020/12/16 06:48:39;;;;;;;50.27;19.93;;;4.70;99.90;;;;;;5071668;28;20219;-63
2020/12/16 06:51:25;;;;;;;49.17;19.47;;;4.70;99.90;;;;;;5056182;28;20384;-65
2020/12/16 06:54:03;;;;;;;54.07;19.93;;;4.80;99.90;;;;;;5064990;28;20174;-64
2020/12/16 06:56:29;;;;;;;45.23;19.60;;;4.80;99.90;;;;;;5070267;28;20204;-64
2020/12/16 06:58:55;;;;;;;56.23;22.20;;;5.00;99.90;;;;;;5057876;28;20178;-60
2020/12/16 07:01:21;;;;;;;51.33;20.20;;;5.10;99.90;;;;;;5038197;28;20563;-62
2020/12/16 07:03:46;;;;;;;54.63;21.03;;;5.10;99.90;;;;;;5054618;28;20189;-66
2020/12/16 07:06:32;;;;;;;55.43;20.90;;;5.20;99.90;;;;;;5071322;28;20229;-63
2020/12/16 07:09:22;;;;;;;50.87;19.03;;;5.10;99.90;;;;;;5069613;28;20177;-64
2020/12/16 07:11:50;;;;;;;58.07;21.40;;;5.10;99.90;;;;;;5070907;28;20174;-64
2020/12/16 07:14:18;;;;;;;52.57;20.97;;;5.10;99.90;;;;;;5056483;28;20183;-64
2020/12/16 07:16:45;;;;;;;53.97;22.07;;;5.10;99.90;;;;;;5051173;28;20675;-62
2020/12/16 07:19:13;;;;;;;50.50;20.93;;;5.00;99.90;;;;;;5064031;28;20177;-65
2020/12/16 07:21:42;;;;;;;55.73;20.63;;;5.10;99.90;;;;;;5070871;28;20654;-63
2020/12/16 07:24:15;;;;;;;61.37;22.47;;;5.10;99.90;;;;;;5058935;28;20171;-64
2020/12/16 07:26:43;;;;;;;59.33;21.40;;;5.10;99.90;;;;;;5051166;28;20167;-62
2020/12/16 07:29:23;;;;;;;59.10;21.67;;;5.00;99.90;;;;;;5060947;28;20209;-64
2020/12/16 07:31:59;;;;;;;59.33;20.17;;;5.00;99.90;;;;;;5070771;28;20260;-65
2020/12/16 07:34:30;;;;;;;55.97;21.97;;;5.00;99.90;;;;;;5069497;28;20280;-63
2020/12/16 07:37:02;;;;;;;64.70;20.20;;;5.00;99.90;;;;;;5071338;28;20530;-63
2020/12/16 07:39:28;;;;;;;63.07;21.03;;;5.00;99.90;;;;;;5058262;28;20221;-65
2020/12/16 07:41:56;;;;;;;64.43;21.70;;;5.00;99.90;;;;;;5050934;28;20730;-62
2020/12/16 07:44:22;;;;;;;63.47;23.17;;;5.00;99.90;;;;;;5061718;28;20746;-65
2020/12/16 07:46:49;;;;;;;67.23;22.77;;;5.00;99.90;;;;;;5069648;28;20181;-65
2020/12/16 07:49:16;;;;;;;70.63;25.73;;;5.10;99.90;;;;;;5061313;28;20179;-63
2020/12/16 07:51:42;;;;;;;69.50;23.00;;;5.10;99.90;;;;;;5050408;28;20171;-63
2020/12/16 07:54:08;;;;;;;68.47;23.57;;;5.20;99.90;;;;;;5058416;28;20182;-62
2020/12/16 07:56:34;;;;;;;69.97;25.57;;;5.30;99.90;;;;;;5070664;28;20588;-64
2020/12/16 07:59:13;;;;;;;70.53;23.67;;;5.30;99.90;;;;;;5064649;28;20175;-63
2020/12/16 08:01:39;;;;;;;65.47;23.53;;;5.30;99.90;;;;;;5050559;28;20221;-62
2020/12/16 08:04:05;;;;;;;67.20;24.10;;;5.30;99.90;;;;;;5051492;28;20167;-64
2020/12/16 08:06:31;;;;;;;65.30;23.07;;;5.40;99.90;;;;;;5050553;28;20281;-63
2020/12/16 08:08:57;;;;;;;68.80;23.77;;;5.30;99.90;;;;;;5050991;28;20179;-63
2020/12/16 08:11:27;;;;;;;72.03;26.50;;;5.40;99.90;;;;;;5050523;28;20181;-63
2020/12/16 08:14:05;;;;;;;70.73;26.30;;;5.50;99.90;;;;;;5057138;28;20180;-64
2020/12/16 08:16:31;;;;;;;76.03;25.90;;;5.50;99.90;;;;;;5073457;28;20162;-63
2020/12/16 08:18:56;;;;;;;68.23;23.47;;;5.60;99.90;;;;;;5061232;28;20269;-65
2020/12/16 08:21:23;;;;;;;75.17;24.60;;;5.60;99.90;;;;;;5053955;28;20811;-64
2020/12/16 08:23:50;;;;;;;83.43;27.20;;;5.70;99.90;;;;;;5055033;28;20179;-65
2020/12/16 08:26:21;;;;;;;90.63;24.90;;;5.80;99.90;;;;;;5054097;28;20195;-65
2020/12/16 08:28:47;;;;;;;98.10;25.47;;;5.80;99.90;;;;;;5064108;28;20180;-65
2020/12/16 08:31:17;;;;;;;83.87;24.60;;;5.80;99.90;;;;;;5073855;28;20171;-65
2020/12/16 08:33:46;;;;;;;106.60;25.80;;;5.90;99.90;;;;;;5064558;28;20187;-64
2020/12/16 08:36:17;;;;;;;110.97;25.03;;;6.00;99.90;;;;;;5052973;28;20186;-65
2020/12/16 08:38:44;;;;;;;92.97;24.10;;;6.00;99.90;;;;;;5061533;28;20280;-65
2020/12/16 08:41:12;;;;;;;89.27;25.17;;;6.10;99.90;;;;;;5073487;28;20558;-64
2020/12/16 08:43:40;;;;;;;72.57;23.07;;;6.20;99.90;;;;;;5065260;28;20226;-64
2020/12/16 08:46:09;;;;;;;81.07;24.10;;;6.20;99.90;;;;;;5053749;28;20193;-63
2020/12/16 08:48:42;;;;;;;86.90;23.83;;;6.30;99.90;;;;;;5059272;28;20653;-65
2020/12/16 08:51:10;;;;;;;77.57;23.13;;;6.30;99.90;;;;;;5073527;28;20173;-64
2020/12/16 08:53:51;;;;;;;87.13;25.70;;;6.30;99.90;;;;;;5066780;28;20480;-64
2020/12/16 08:56:21;;;;;;;83.67;24.07;;;6.40;99.90;;;;;;5053657;28;20230;-64
2020/12/16 08:59:03;;;;;;;67.20;22.90;;;6.40;99.90;;;;;;5059549;28;20174;-63
2020/12/16 09:01:29;;;;;;;74.13;22.73;;;6.40;99.90;;;;;;5072750;28;20294;-64
2020/12/16 09:03:54;;;;;;;80.63;22.00;;;6.40;99.90;;;;;;5066817;28;20254;-64
2020/12/16 09:06:20;;;;;;;101.27;22.07;;;6.50;99.90;;;;;;5053519;28;20213;-62
2020/12/16 09:08:47;;;;;;;97.00;25.87;;;6.50;99.90;;;;;;5057891;28;20177;-63
2020/12/16 09:11:12;;;;;;;66.40;19.93;;;6.50;99.90;;;;;;5073196;28;20595;-63
2020/12/16 09:13:38;;;;;;;67.17;22.97;;;6.40;99.90;;;;;;5070138;28;20191;-62
2020/12/16 09:16:04;;;;;;;58.73;21.93;;;6.50;99.90;;;;;;5063221;28;20194;-64
2020/12/16 09:18:32;;;;;;;65.60;21.50;;;6.60;99.90;;;;;;5071871;28;20207;-65
2020/12/16 09:20:58;;;;;;;60.27;21.63;;;6.80;99.90;;;;;;5053217;28;20187;-63
2020/12/16 09:23:28;;;;;;;72.90;22.93;;;6.90;99.90;;;;;;5053111;28;20636;-64
2020/12/16 09:25:58;;;;;;;51.83;21.57;;;7.30;99.90;;;;;;5032987;28;20188;-63
2020/12/16 09:28:37;;;;;;;55.70;23.50;;;7.60;99.90;;;;;;5032383;28;20164;-64
2020/12/16 09:31:16;;;;;;;87.97;22.73;;;8.20;99.90;;;;;;5032154;28;20637;-65
2020/12/16 09:34:04;;;;;;;46.07;20.63;;;8.90;99.90;;;;;;5034148;28;20544;-65
2020/12/16 09:36:30;;;;;;;41.10;16.43;;;9.30;99.90;;;;;;5071421;28;20198;-62
2020/12/16 09:39:01;;;;;;;36.47;18.03;;;9.40;99.90;;;;;;5069905;28;20662;-62
2020/12/16 09:41:27;;;;;;;29.80;16.33;;;9.60;99.90;;;;;;5052563;28;20601;-62
2020/12/16 09:43:54;;;;;;;29.73;15.67;;;9.50;99.90;;;;;;5053313;28;20637;-62
2020/12/16 09:46:22;;;;;;;29.50;15.07;;;9.50;99.90;;;;;;5071279;28;20217;-64
2020/12/16 09:48:50;;;;;;;32.27;15.90;;;9.40;99.90;;;;;;5072563;28;20170;-63
2020/12/16 09:51:17;;;;;;;28.50;15.97;;;9.40;99.90;;;;;;5052590;28;20179;-62
2020/12/16 09:53:44;;;;;;;33.30;17.07;;;9.40;99.90;;;;;;5052298;28;20593;-64
2020/12/16 09:56:25;;;;;;;29.57;15.97;;;9.50;99.90;;;;;;5070377;28;20202;-63
2020/12/16 09:58:51;;;;;;;26.63;15.57;;;9.60;99.90;;;;;;5072494;28;20253;-62
2020/12/16 10:01:17;;;;;;;27.97;16.60;;;9.80;99.90;;;;;;5053292;28;20535;-63
2020/12/16 10:03:43;;;;;;;24.03;15.13;;;9.90;99.90;;;;;;5052165;28;20173;-64
2020/12/16 10:06:13;;;;;;;29.47;16.17;;;9.90;99.90;;;;;;5071756;28;20732;-64
2020/12/16 10:08:40;;;;;;;23.77;15.63;;;10.00;99.90;;;;;;5071534;28;20166;-65
2020/12/16 10:11:10;;;;;;;22.17;15.10;;;10.10;99.90;;;;;;5051931;28;20179;-65
2020/12/16 10:13:36;;;;;;;20.80;14.80;;;10.00;99.90;;;;;;5052031;28;20166;-64
2020/12/16 10:16:01;;;;;;;22.70;13.47;;;10.10;99.90;;;;;;5053321;28;20217;-64
2020/12/16 10:18:27;;;;;;;27.33;15.53;;;10.30;99.90;;;;;;5063722;28;20182;-64
2020/12/16 10:20:53;;;;;;;19.87;15.03;;;10.70;99.90;;;;;;5071632;28;20178;-65
2020/12/16 10:23:18;;;;;;;15.70;12.80;;;11.60;99.90;;;;;;5061570;28;20175;-65
2020/12/16 10:25:44;;;;;;;13.20;10.57;;;12.40;99.90;;;;;;5051572;28;20195;-64
2020/12/16 10:28:10;;;;;;;15.47;10.67;;;12.80;99.90;;;;;;5059834;28;20237;-64
2020/12/16 10:30:37;;;;;;;9.87;8.73;;;13.00;99.90;;;;;;5071500;28;20166;-63
2020/12/16 10:33:03;;;;;;;9.67;8.23;;;13.40;99.90;;;;;;5064862;28;20179;-64
2020/12/16 10:35:29;;;;;;;8.90;7.93;;;13.90;99.90;;;;;;5050985;28;20190;-65
2020/12/16 10:37:55;;;;;;;7.93;6.70;;;14.30;99.90;;;;;;5055842;28;20178;-63
2020/12/16 10:40:21;;;;;;;7.47;6.43;;;14.40;99.90;;;;;;5071423;28;20178;-66
2020/12/16 10:42:46;;;;;;;8.47;6.87;;;14.70;99.90;;;;;;5068315;28;20281;-63
2020/12/16 10:45:12;;;;;;;8.37;6.37;;;14.50;99.90;;;;;;5051657;28;20191;-64
2020/12/16 10:47:38;;;;;;;7.63;6.53;;;14.30;99.90;;;;;;5051035;28;20589;-64
2020/12/16 10:50:04;;;;;;;7.33;6.40;;;14.00;99.90;;;;;;5071439;28;20245;-65
2020/12/16 10:52:29;;;;;;;7.83;6.60;;;13.60;99.90;;;;;;5071439;28;20232;-65
2020/12/16 10:54:55;;;;;;;8.00;6.40;;;13.50;99.90;;;;;;5055377;28;20236;-65
2020/12/16 10:57:21;;;;;;;7.13;6.43;;;13.60;99.90;;;;;;5052016;28;20256;-64
2020/12/16 10:59:47;;;;;;;9.90;6.87;;;13.50;99.90;;;;;;5068523;28;20197;-64
2020/12/16 11:02:13;;;;;;;9.20;7.17;;;13.40;99.90;;;;;;5071192;28;20281;-64
2020/12/16 11:04:39;;;;;;;10.17;7.07;;;13.30;99.90;;;;;;5055047;28;20281;-65
2020/12/16 11:07:05;;;;;;;6.93;6.20;;;13.40;99.90;;;;;;5075535;22;20230;-65
2020/12/16 11:09:31;;;;;;;8.37;6.87;;;13.40;99.90;;;;;;5065468;28;20720;-65
2020/12/16 11:11:56;;;;;;;8.10;6.40;;;13.50;99.90;;;;;;5070967;28;20170;-65
2020/12/16 11:14:25;;;;;;;8.00;6.30;;;13.50;99.90;;;;;;5058626;28;20179;-64
2020/12/16 11:16:53;;;;;;;7.87;6.27;;;13.70;99.90;;;;;;5051558;28;20214;-65
2020/12/16 11:19:18;;;;;;;7.70;6.37;;;13.70;99.90;;;;;;5051179;28;20174;-65
2020/12/16 11:21:47;;;;;;;7.00;6.07;;;13.60;99.90;;;;;;5050707;28;20210;-65
2020/12/16 11:24:15;;;;;;;6.80;5.93;;;13.60;99.90;;;;;;5051197;28;20296;-65
2020/12/16 11:26:49;;;;;;;8.20;6.80;;;13.70;99.90;;;;;;5050912;28;20187;-66
2020/12/16 11:29:16;;;;;;;7.57;6.53;;;13.80;99.90;;;;;;5049728;28;20170;-64
2020/12/16 11:31:44;;;;;;;7.37;6.57;;;13.70;99.90;;;;;;5050713;28;20647;-65
2020/12/16 11:34:10;;;;;;;7.87;6.60;;;13.60;99.90;;;;;;5051186;28;20179;-65
2020/12/16 11:36:39;;;;;;;7.23;6.20;;;13.40;99.90;;;;;;5050289;28;20203;-65
2020/12/16 11:39:05;;;;;;;8.20;6.97;;;13.30;99.90;;;;;;5051370;28;20246;-65
2020/12/16 11:41:31;;;;;;;7.37;6.67;;;13.10;99.90;;;;;;5050846;28;20198;-65
2020/12/16 11:43:57;;;;;;;8.17;6.60;;;13.10;99.90;;;;;;5050995;28;20171;-67
2020/12/16 11:46:22;;;;;;;7.07;6.30;;;13.10;99.90;;;;;;5051168;28;20252;-65
2020/12/16 11:48:48;;;;;;;7.37;6.47;;;12.90;99.90;;;;;;5050640;28;20178;-65
2020/12/16 11:51:15;;;;;;;9.27;7.67;;;12.70;99.90;;;;;;5053432;28;20266;-66
2020/12/16 11:53:40;;;;;;;9.10;7.43;;;12.50;99.90;;;;;;5053493;28;20245;-64
2020/12/16 11:56:06;;;;;;;10.47;7.50;;;12.50;99.90;;;;;;5054917;28;20198;-65
2020/12/16 11:58:31;;;;;;;8.00;7.00;;;12.60;99.90;;;;;;5054432;28;20241;-65
2020/12/16 12:00:57;;;;;;;9.47;7.40;;;12.60;99.90;;;;;;5054615;28;20232;-64
2020/12/16 12:03:23;;;;;;;8.70;7.10;;;12.60;99.90;;;;;;5055152;28;20198;-65
2020/12/16 12:05:48;;;;;;;9.57;7.37;;;12.60;99.90;;;;;;5054232;28;20706;-65
2020/12/16 12:08:14;;;;;;;8.20;6.93;;;12.70;99.90;;;;;;5054867;28;20178;-67
2020/12/16 12:10:40;;;;;;;8.73;7.00;;;12.80;99.90;;;;;;5053960;28;20270;-65
2020/12/16 12:13:05;;;;;;;10.60;7.70;;;12.80;99.90;;;;;;5054834;28;20269;-65
2020/12/16 12:15:33;;;;;;;8.10;6.80;;;12.90;99.90;;;;;;5054195;28;20443;-65
2020/12/16 12:17:59;;;;;;;7.07;6.03;;;13.00;99.90;;;;;;5054462;28;20171;-65
2020/12/16 12:20:25;;;;;;;6.70;6.00;;;12.90;99.90;;;;;;5054457;28;20186;-67
2020/12/16 12:22:50;;;;;;;7.80;5.80;;;12.70;99.90;;;;;;5053944;28;20210;-67
2020/12/16 12:25:16;;;;;;;7.27;6.20;;;12.60;99.90;;;;;;5054683;28;20193;-66
2020/12/16 12:27:41;;;;;;;7.50;6.17;;;12.70;99.90;;;;;;5054132;28;20262;-67
2020/12/16 12:30:07;;;;;;;7.87;6.20;;;12.80;99.90;;;;;;5054203;28;20163;-65
2020/12/16 12:32:33;;;;;;;7.10;6.40;;;12.90;99.90;;;;;;5053867;28;20281;-65
2020/12/16 12:34:58;;;;;;;8.10;6.50;;;12.90;99.90;;;;;;5053359;28;20207;-65
2020/12/16 12:37:24;;;;;;;6.63;5.93;;;12.90;99.90;;;;;;5053910;28;20182;-65
2020/12/16 12:39:50;;;;;;;7.10;6.40;;;12.90;99.90;;;;;;5054374;28;20391;-64
2020/12/16 12:42:16;;;;;;;8.00;6.53;;;12.80;99.90;;;;;;5053511;28;20213;-65
2020/12/16 12:44:42;;;;;;;7.27;6.13;;;12.70;99.90;;;;;;5053821;28;20535;-65